Stockholm, Maine
Current Conditions -  °F | °C
As of 4:54 PM on Wednesday 22 Oct 2014 (Local Time) from KCAR Reporting Station
Scattered Clouds Scattered Clouds  
Wind Chill: 45°   Ceiling: Unl
Heat Index: 49°   Visibility: 10mi
Dew Point: 35°   Wind: 8mph
Humidity: 59%   Direction: 50°NE
Pressure: 30.33"   Gusts: NA
Location:  47.04°N, 68.14°W
Report Text: KCAR 222054Z AUTO 05007KT 10SM SCT085 09/02 A3033 RMK AO2 SLP281 T00940017 55004
Loading
Personal Weather Stations






























Interactive Weather Map New forecast layout! Learn more

10-Day Weather Forecast

Advertisements
Track Severe Weather on mobile